Time;durP1;ratioP1;P1;durP2;ratioP2;P2;SDS_P1;SDS_P2;PMS_P1;PMS_P2;Temp;Humidity;BMP_temperature;BMP_pressure;BME280_temperature;BME280_humidity;BME280_pressure;Samples;Min_cycle;Max_cycle;Signal;HPM_P1;HPM_P2
2023/10/30 00:03:24;;;;;;;5.72;2.80;;;;;;;;;;10529605;28;20118;-75
2023/10/30 00:08:27;;;;;;;7.63;2.90;;;;;;;;;;10529313;28;20058;-75
2023/10/30 00:13:29;;;;;;;7.68;2.55;;;;;;;;;;10529716;28;20444;-75
2023/10/30 00:18:34;;;;;;;3.33;1.98;;;;;;;;;;10518182;28;20409;-76
2023/10/30 00:23:37;;;;;;;7.30;2.35;;;;;;;;;;10532825;28;20044;-76
2023/10/30 00:28:40;;;;;;;4.90;2.42;;;;;;;;;;10525501;28;20048;-78
2023/10/30 00:33:44;;;;;;;7.28;2.30;;;;;;;;;;10524047;28;20062;-77
2023/10/30 00:38:46;;;;;;;;;;;;;;;;;;10524782;28;20050;-76
2023/10/30 00:43:49;;;;;;;4.80;2.28;;;;;;;;;;10521848;28;19996;-74
2023/10/30 00:48:53;;;;;;;5.93;2.40;;;;;;;;;;10518600;28;20047;-77
2023/10/30 00:53:55;;;;;;;3.70;2.03;;;;;;;;;;10511649;28;20546;-75
2023/10/30 00:58:58;;;;;;;5.05;2.55;;;;;;;;;;10518330;28;20171;-74
2023/10/30 01:04:02;;;;;;;3.88;1.83;;;;;;;;;;10520208;28;20174;-75
2023/10/30 01:09:04;;;;;;;;;;;;;;;;;;10525091;28;20065;-78
2023/10/30 01:14:07;;;;;;;4.95;2.00;;;;;;;;;;10519373;28;20338;-77
2023/10/30 01:19:11;;;;;;;3.83;2.42;;;;;;;;;;10525900;28;20055;-76
2023/10/30 01:24:14;;;;;;;4.55;2.00;;;;;;;;;;10523952;28;20032;-74
2023/10/30 01:29:17;;;;;;;5.00;2.17;;;;;;;;;;10529533;28;20639;-77
2023/10/30 01:34:21;;;;;;;4.28;2.40;;;;;;;;;;10523913;28;20401;-76
2023/10/30 01:39:23;;;;;;;4.78;2.28;;;;;;;;;;10523483;28;20040;-77
2023/10/30 01:44:26;;;;;;;5.32;3.00;;;;;;;;;;10520452;28;20046;-77
2023/10/30 01:49:30;;;;;;;5.18;2.40;;;;;;;;;;10518438;28;20113;-76
2023/10/30 01:54:33;;;;;;;5.80;2.67;;;;;;;;;;10522910;28;20123;-77
2023/10/30 01:59:35;;;;;;;4.65;2.20;;;;;;;;;;10522956;28;20050;-77
2023/10/30 02:04:39;;;;;;;6.80;2.10;;;;;;;;;;10522991;28;20042;-77
2023/10/30 02:09:42;;;;;;;5.00;2.25;;;;;;;;;;10525331;28;20401;-76
2023/10/30 02:14:44;;;;;;;4.15;2.08;;;;;;;;;;10522803;28;20036;-76
2023/10/30 02:19:48;;;;;;;5.25;2.17;;;;;;;;;;10527485;28;20091;-76
2023/10/30 02:24:51;;;;;;;6.70;2.38;;;;;;;;;;10534122;28;20048;-76
2023/10/30 02:29:55;;;;;;;7.07;2.50;;;;;;;;;;10533540;28;20105;-77
2023/10/30 02:34:58;;;;;;;4.68;2.30;;;;;;;;;;10524238;28;20566;-77
2023/10/30 02:40:00;;;;;;;4.40;2.40;;;;;;;;;;10533447;28;20080;-77
2023/10/30 02:45:05;;;;;;;8.70;2.20;;;;;;;;;;10528082;28;20047;-75
2023/10/30 02:50:10;;;;;;;3.88;1.90;;;;;;;;;;10525382;28;20059;-75
2023/10/30 02:55:13;;;;;;;4.00;2.00;;;;;;;;;;10523101;28;20032;-74
2023/10/30 03:00:17;;;;;;;3.40;1.75;;;;;;;;;;10532471;28;20461;-76
2023/10/30 03:05:20;;;;;;;6.18;2.30;;;;;;;;;;10528692;28;20687;-76
2023/10/30 03:10:22;;;;;;;3.97;2.17;;;;;;;;;;10524801;28;20147;-77
2023/10/30 03:15:26;;;;;;;4.05;2.20;;;;;;;;;;10526473;28;20115;-75
2023/10/30 03:20:29;;;;;;;5.38;2.30;;;;;;;;;;10526290;28;20123;-75
2023/10/30 03:25:32;;;;;;;5.80;2.38;;;;;;;;;;10522024;28;20058;-74
2023/10/30 03:30:36;;;;;;;3.67;2.10;;;;;;;;;;10530888;28;20051;-74
2023/10/30 03:35:38;;;;;;;;;;;;;;;;;;10519277;28;20992;-76
2023/10/30 03:40:41;;;;;;;5.45;2.25;;;;;;;;;;10524479;28;19924;-76
2023/10/30 03:45:45;;;;;;;2.55;1.77;;;;;;;;;;10525672;28;20051;-76
2023/10/30 03:50:47;;;;;;;;;;;;;;;;;;10525112;28;20056;-77
2023/10/30 03:55:50;;;;;;;4.60;2.17;;;;;;;;;;10531208;28;20065;-76
2023/10/30 04:00:54;;;;;;;4.00;1.95;;;;;;;;;;10525371;28;20082;-74
2023/10/30 04:06:00;;;;;;;4.85;2.63;;;;;;;;;;10521472;28;20044;-76
2023/10/30 04:11:08;;;;;;;4.63;2.05;;;;;;;;;;10528415;28;20079;-76
2023/10/30 04:16:13;;;;;;;5.55;2.58;;;;;;;;;;10524856;28;20673;-77
2023/10/30 04:21:16;;;;;;;3.28;1.88;;;;;;;;;;10525368;28;20044;-77
2023/10/30 04:26:20;;;;;;;5.45;2.45;;;;;;;;;;10521061;28;20146;-77
2023/10/30 04:31:23;;;;;;;3.25;2.13;;;;;;;;;;10529972;28;20613;-74
2023/10/30 04:36:26;;;;;;;6.10;2.60;;;;;;;;;;10527443;28;20458;-75
2023/10/30 04:41:31;;;;;;;4.80;2.25;;;;;;;;;;10517680;28;20050;-75
2023/10/30 04:46:35;;;;;;;7.40;2.55;;;;;;;;;;10527571;28;20477;-77
2023/10/30 04:51:39;;;;;;;4.85;2.47;;;;;;;;;;10518602;28;20041;-77
2023/10/30 04:56:41;;;;;;;4.40;2.28;;;;;;;;;;10521085;28;20032;-78
2023/10/30 05:01:45;;;;;;;4.03;2.15;;;;;;;;;;10521611;28;20148;-74
2023/10/30 05:06:48;;;;;;;5.45;2.33;;;;;;;;;;10526529;28;20053;-75
2023/10/30 05:11:51;;;;;;;5.50;2.70;;;;;;;;;;10520703;28;20143;-75
2023/10/30 05:16:55;;;;;;;7.40;2.88;;;;;;;;;;10526851;28;20101;-76
2023/10/30 05:21:58;;;;;;;4.68;2.63;;;;;;;;;;10523887;28;20059;-76
2023/10/30 05:27:00;;;;;;;6.60;2.95;;;;;;;;;;10523094;28;20550;-77
2023/10/30 05:32:06;;;;;;;5.93;3.00;;;;;;;;;;10517490;28;20044;-76
2023/10/30 05:37:09;;;;;;;4.57;2.53;;;;;;;;;;10520190;28;20036;-77
2023/10/30 05:42:12;;;;;;;7.07;2.92;;;;;;;;;;10519066;28;20508;-76
2023/10/30 05:47:16;;;;;;;8.90;3.13;;;;;;;;;;10518659;28;20039;-76
2023/10/30 05:52:18;;;;;;;4.55;2.92;;;;;;;;;;10517902;28;20097;-76
2023/10/30 05:57:21;;;;;;;4.82;2.63;;;;;;;;;;10530600;28;20055;-77
2023/10/30 06:02:26;;;;;;;4.93;3.03;;;;;;;;;;10511850;28;20055;-78
2023/10/30 06:07:28;;;;;;;5.15;2.30;;;;;;;;;;10526943;28;20048;-77
2023/10/30 06:12:31;;;;;;;6.45;3.08;;;;;;;;;;10529398;28;20048;-77
2023/10/30 06:17:35;;;;;;;7.95;3.75;;;;;;;;;;10526350;28;20058;-76
2023/10/30 06:22:39;;;;;;;8.73;3.38;;;;;;;;;;10528063;28;20610;-76
2023/10/30 06:27:42;;;;;;;8.67;3.67;;;;;;;;;;10530809;28;20093;-76
2023/10/30 06:32:46;;;;;;;6.82;3.35;;;;;;;;;;10535805;28;20393;-75
2023/10/30 06:37:48;;;;;;;;;;;;;;;;;;10533925;28;20032;-77
2023/10/30 06:42:51;;;;;;;7.00;3.47;;;;;;;;;;10542768;28;19930;-77
2023/10/30 06:47:55;;;;;;;8.18;3.42;;;;;;;;;;10527458;28;20131;-77
2023/10/30 06:52:58;;;;;;;8.48;3.30;;;;;;;;;;10530113;28;20044;-77
2023/10/30 06:58:00;;;;;;;5.10;2.90;;;;;;;;;;10523946;28;20174;-77
2023/10/30 07:03:05;;;;;;;6.00;2.95;;;;;;;;;;10527175;28;20126;-79
2023/10/30 07:08:08;;;;;;;5.82;3.05;;;;;;;;;;10527034;28;20489;-78
2023/10/30 07:13:10;;;;;;;6.68;3.05;;;;;;;;;;10527724;28;20036;-76
2023/10/30 07:18:14;;;;;;;6.07;2.70;;;;;;;;;;10520193;28;20127;-76
2023/10/30 07:23:17;;;;;;;6.13;2.88;;;;;;;;;;10533151;28;20400;-75
2023/10/30 07:28:20;;;;;;;4.35;2.50;;;;;;;;;;10527402;28;20054;-77
2023/10/30 07:33:26;;;;;;;3.17;2.40;;;;;;;;;;10527936;28;20480;-77
2023/10/30 07:38:41;;;;;;;6.22;2.65;;;;;;;;;;10534348;28;20297;-78
2023/10/30 07:43:45;;;;;;;5.20;2.80;;;;;;;;;;10539392;28;20047;-79
2023/10/30 07:48:49;;;;;;;7.00;2.83;;;;;;;;;;10533071;28;20285;-78
2023/10/30 07:53:51;;;;;;;6.93;3.30;;;;;;;;;;10536239;28;20314;-79
2023/10/30 07:58:54;;;;;;;6.20;3.10;;;;;;;;;;10529434;28;20074;-76
2023/10/30 08:03:59;;;;;;;5.88;3.05;;;;;;;;;;10535368;28;20063;-75
2023/10/30 08:09:02;;;;;;;6.65;3.22;;;;;;;;;;10521763;28;20071;-78
2023/10/30 08:14:05;;;;;;;5.50;3.30;;;;;;;;;;10513556;28;20704;-76
2023/10/30 08:19:10;;;;;;;5.88;3.35;;;;;;;;;;10500165;28;20449;-77
2023/10/30 08:24:13;;;;;;;5.78;3.47;;;;;;;;;;10523078;28;20900;-77
2023/10/30 08:29:15;;;;;;;5.20;3.60;;;;;;;;;;10519806;28;20122;-77
2023/10/30 08:34:19;;;;;;;7.97;3.05;;;;;;;;;;10516056;28;20102;-78
2023/10/30 08:39:22;;;;;;;5.88;3.28;;;;;;;;;;10523383;28;20043;-77
2023/10/30 08:44:25;;;;;;;5.40;3.25;;;;;;;;;;10519742;28;20040;-77
2023/10/30 08:49:32;;;;;;;5.25;3.05;;;;;;;;;;10523265;28;20052;-77
2023/10/30 08:54:35;;;;;;;4.28;3.10;;;;;;;;;;10500161;28;20044;-78
2023/10/30 08:59:39;;;;;;;6.00;3.13;;;;;;;;;;10513814;28;20048;-76
2023/10/30 09:04:43;;;;;;;4.70;3.08;;;;;;;;;;10515499;28;20049;-76
2023/10/30 09:09:46;;;;;;;3.20;2.45;;;;;;;;;;10520004;28;20039;-77
2023/10/30 09:14:49;;;;;;;3.65;2.25;;;;;;;;;;10514484;28;20047;-77
2023/10/30 09:19:53;;;;;;;4.65;2.67;;;;;;;;;;10519782;28;20660;-77
2023/10/30 09:24:56;;;;;;;4.85;3.03;;;;;;;;;;10519826;28;20133;-77
2023/10/30 09:29:58;;;;;;;;;;;;;;;;;;10519303;28;20056;-76
2023/10/30 09:35:03;;;;;;;3.60;2.10;;;;;;;;;;10526977;28;20094;-77
2023/10/30 09:40:06;;;;;;;6.25;2.15;;;;;;;;;;10524627;28;20313;-76
2023/10/30 09:45:10;;;;;;;5.07;1.80;;;;;;;;;;10525897;28;20058;-77
2023/10/30 09:50:15;;;;;;;1.65;1.52;;;;;;;;;;10525649;28;20094;-79
2023/10/30 09:55:18;;;;;;;1.90;1.70;;;;;;;;;;10520447;28;20509;-78
2023/10/30 10:00:21;;;;;;;2.33;1.50;;;;;;;;;;10517581;28;20037;-77
2023/10/30 10:05:25;;;;;;;3.78;1.83;;;;;;;;;;10526416;28;20044;-78
2023/10/30 10:10:28;;;;;;;4.85;1.70;;;;;;;;;;10521429;28;20054;-77
2023/10/30 10:15:31;;;;;;;3.83;1.48;;;;;;;;;;10524051;28;20496;-76
2023/10/30 10:20:35;;;;;;;3.08;1.65;;;;;;;;;;10519740;28;20056;-77
2023/10/30 10:25:52;;;;;;;4.63;1.80;;;;;;;;;;10535486;27;20051;-76
2023/10/30 10:30:55;;;;;;;2.75;1.10;;;;;;;;;;10523737;28;20040;-77
2023/10/30 10:36:00;;;;;;;3.22;1.30;;;;;;;;;;10507793;28;20514;-77
2023/10/30 10:41:04;;;;;;;1.58;1.08;;;;;;;;;;10526874;28;20048;-78
2023/10/30 10:46:07;;;;;;;1.38;1.27;;;;;;;;;;10527238;28;20649;-78
2023/10/30 10:51:13;;;;;;;3.33;1.40;;;;;;;;;;10527274;28;20048;-78
2023/10/30 10:56:16;;;;;;;2.72;1.20;;;;;;;;;;10506708;28;20067;-77
2023/10/30 11:01:20;;;;;;;3.70;1.50;;;;;;;;;;10518948;28;20176;-77
2023/10/30 11:06:28;;;;;;;4.25;1.50;;;;;;;;;;10527642;28;20075;-77
2023/10/30 11:11:33;;;;;;;3.00;1.27;;;;;;;;;;10520054;28;20139;-77
2023/10/30 11:16:39;;;;;;;3.42;1.40;;;;;;;;;;10529320;28;20067;-76
2023/10/30 11:21:43;;;;;;;5.38;1.23;;;;;;;;;;10528489;28;20043;-77
2023/10/30 11:26:46;;;;;;;3.00;1.40;;;;;;;;;;10514557;28;20122;-76
2023/10/30 11:31:52;;;;;;;2.90;1.40;;;;;;;;;;10523227;28;20062;-77
2023/10/30 11:37:00;;;;;;;1.60;1.25;;;;;;;;;;10526745;28;20048;-77
2023/10/30 11:42:04;;;;;;;1.92;1.30;;;;;;;;;;10521291;28;20036;-77
2023/10/30 11:47:11;;;;;;;2.38;1.20;;;;;;;;;;10518707;28;20071;-77
2023/10/30 11:52:15;;;;;;;2.28;1.25;;;;;;;;;;10521843;28;20134;-77
2023/10/30 11:57:18;;;;;;;2.65;1.13;;;;;;;;;;10519951;28;20066;-78
2023/10/30 12:02:21;;;;;;;2.22;1.30;;;;;;;;;;10522750;28;20062;-79
2023/10/30 12:07:25;;;;;;;;;;;;;;;;;;10523742;28;20122;-82
2023/10/30 12:12:31;;;;;;;2.85;1.38;;;;;;;;;;10522263;28;19920;-77
2023/10/30 12:17:34;;;;;;;4.88;1.50;;;;;;;;;;10527632;28;20044;-77
2023/10/30 12:22:41;;;;;;;5.07;1.40;;;;;;;;;;10526086;28;20440;-76
2023/10/30 12:27:46;;;;;;;1.67;1.17;;;;;;;;;;10530799;28;20051;-77
2023/10/30 12:32:57;;;;;;;2.65;1.33;;;;;;;;;;10528556;28;20402;-78
2023/10/30 12:38:00;;;;;;;2.47;1.48;;;;;;;;;;10524118;28;20043;-78
2023/10/30 12:43:04;;;;;;;3.13;1.40;;;;;;;;;;10525271;28;20131;-78
2023/10/30 12:48:07;;;;;;;1.70;1.40;;;;;;;;;;10518681;28;20076;-77
2023/10/30 12:53:10;;;;;;;2.83;1.63;;;;;;;;;;10517449;28;20048;-77
2023/10/30 12:58:15;;;;;;;4.75;1.52;;;;;;;;;;10536839;28;20967;-77
2023/10/30 13:03:18;;;;;;;1.77;1.30;;;;;;;;;;10524441;28;20047;-78
2023/10/30 13:08:21;;;;;;;9.50;1.70;;;;;;;;;;10524721;28;20064;-78
2023/10/30 13:13:25;;;;;;;4.80;1.53;;;;;;;;;;10527930;28;20071;-79
2023/10/30 13:18:29;;;;;;;3.17;2.05;;;;;;;;;;10525474;28;20056;-78
2023/10/30 13:23:32;;;;;;;6.03;2.47;;;;;;;;;;10512109;28;20036;-78
2023/10/30 13:28:36;;;;;;;6.10;2.25;;;;;;;;;;10528886;28;20485;-78
2023/10/30 13:33:39;;;;;;;2.35;1.60;;;;;;;;;;10521708;28;20493;-78
2023/10/30 13:38:43;;;;;;;2.33;1.45;;;;;;;;;;10520013;28;20036;-78
2023/10/30 13:43:47;;;;;;;6.70;1.60;;;;;;;;;;10527800;28;20532;-77
2023/10/30 13:48:49;;;;;;;2.72;1.52;;;;;;;;;;10528310;28;20778;-77
2023/10/30 13:53:54;;;;;;;6.03;2.10;;;;;;;;;;10526623;28;20055;-76
2023/10/30 13:58:58;;;;;;;2.58;1.42;;;;;;;;;;10524022;28;20048;-76
2023/10/30 14:04:01;;;;;;;5.28;2.05;;;;;;;;;;10529217;28;20055;-78
2023/10/30 14:09:05;;;;;;;5.88;2.33;;;;;;;;;;10520392;28;20035;-78
2023/10/30 14:14:09;;;;;;;4.50;2.30;;;;;;;;;;10526453;28;20083;-77
2023/10/30 14:19:12;;;;;;;7.57;2.35;;;;;;;;;;10539932;28;20119;-77
2023/10/30 14:24:14;;;;;;;7.03;3.10;;;;;;;;;;10529745;28;20031;-77
2023/10/30 14:29:19;;;;;;;6.78;3.28;;;;;;;;;;10513386;28;20087;-78
2023/10/30 14:34:21;;;;;;;5.40;2.92;;;;;;;;;;10533321;28;20036;-77
2023/10/30 14:39:24;;;;;;;7.07;3.80;;;;;;;;;;10537870;28;20056;-77
2023/10/30 14:44:28;;;;;;;6.60;3.83;;;;;;;;;;10528264;28;20097;-78
2023/10/30 14:49:31;;;;;;;11.20;4.25;;;;;;;;;;10523558;28;20416;-78
2023/10/30 14:54:34;;;;;;;7.57;4.60;;;;;;;;;;10534187;28;20067;-79
2023/10/30 14:59:38;;;;;;;9.63;4.85;;;;;;;;;;10525211;28;20472;-77
2023/10/30 15:04:41;;;;;;;8.85;4.68;;;;;;;;;;10530968;28;20078;-77
2023/10/30 15:09:43;;;;;;;10.52;3.97;;;;;;;;;;10525569;28;20486;-77
2023/10/30 15:14:48;;;;;;;7.72;4.55;;;;;;;;;;10525895;28;20048;-77
2023/10/30 15:19:51;;;;;;;10.80;4.35;;;;;;;;;;10535015;28;20468;-77
2023/10/30 15:24:54;;;;;;;8.10;4.43;;;;;;;;;;10534952;28;20048;-78
2023/10/30 15:29:58;;;;;;;12.38;5.85;;;;;;;;;;10525278;28;20036;-78
2023/10/30 15:35:01;;;;;;;10.45;4.82;;;;;;;;;;10528316;28;20051;-80
2023/10/30 15:40:04;;;;;;;9.52;5.10;;;;;;;;;;10533483;28;20103;-78
2023/10/30 15:45:09;;;;;;;9.45;4.88;;;;;;;;;;10524942;28;20044;-78
2023/10/30 15:50:12;;;;;;;11.23;5.22;;;;;;;;;;10526639;28;20032;-78
2023/10/30 15:55:15;;;;;;;11.82;5.07;;;;;;;;;;10523044;28;20039;-79
2023/10/30 16:00:24;;;;;;;8.88;4.97;;;;;;;;;;10525492;28;20109;-79
2023/10/30 16:05:27;;;;;;;10.50;4.70;;;;;;;;;;10524310;28;20123;-78
2023/10/30 16:10:47;;;;;;;15.20;6.85;;;;;;;;;;10531727;28;20142;-78
2023/10/30 16:15:53;;;;;;;10.25;5.10;;;;;;;;;;10523828;28;20065;-77
2023/10/30 16:20:56;;;;;;;16.77;5.13;;;;;;;;;;10520616;28;20071;-77
2023/10/30 16:26:21;;;;;;;13.30;5.72;;;;;;;;;;10520122;28;20048;-78
2023/10/30 16:31:26;;;;;;;13.30;5.90;;;;;;;;;;10526214;28;20046;-78
2023/10/30 16:36:29;;;;;;;9.85;4.88;;;;;;;;;;10523985;28;20043;-77
2023/10/30 16:41:31;;;;;;;13.57;5.07;;;;;;;;;;10525193;28;20032;-78
2023/10/30 16:46:36;;;;;;;10.23;5.15;;;;;;;;;;10525834;28;20131;-77
2023/10/30 16:51:38;;;;;;;8.07;3.72;;;;;;;;;;10516067;28;20044;-78
2023/10/30 16:56:41;;;;;;;13.30;5.78;;;;;;;;;;10521758;28;20059;-77
2023/10/30 17:01:45;;;;;;;11.32;5.75;;;;;;;;;;10527243;28;20659;-77
2023/10/30 17:06:48;;;;;;;11.82;5.40;;;;;;;;;;10523188;28;20599;-76
2023/10/30 17:11:50;;;;;;;11.40;5.35;;;;;;;;;;10525562;28;20120;-77
2023/10/30 17:16:55;;;;;;;8.57;5.13;;;;;;;;;;10524587;28;20185;-76
2023/10/30 17:21:57;;;;;;;12.27;5.47;;;;;;;;;;10520020;28;20108;-77
2023/10/30 17:27:01;;;;;;;11.50;5.60;;;;;;;;;;10525840;28;20469;-76
2023/10/30 17:32:05;;;;;;;8.55;4.32;;;;;;;;;;10516267;28;20107;-77
2023/10/30 17:37:08;;;;;;;7.70;3.55;;;;;;;;;;10522321;28;20053;-77
2023/10/30 17:42:34;;;;;;;;;;;;;;;;;;;;;
2023/10/30 17:48:03;;;;;;;8.30;3.45;;;;;;;;;;10510960;28;20075;-76
2023/10/30 17:53:06;;;;;;;7.22;3.25;;;;;;;;;;10539215;28;20044;-75
2023/10/30 17:58:11;;;;;;;9.13;3.00;;;;;;;;;;10506455;28;20059;-75
2023/10/30 18:03:16;;;;;;;7.07;3.17;;;;;;;;;;10528514;28;20560;-76
2023/10/30 18:08:19;;;;;;;5.40;2.38;;;;;;;;;;10531519;28;20056;-75
2023/10/30 18:13:21;;;;;;;2.58;1.65;;;;;;;;;;10533708;28;20054;-75
2023/10/30 18:18:25;;;;;;;8.18;2.58;;;;;;;;;;10534906;28;20040;-75
2023/10/30 18:23:28;;;;;;;5.13;2.30;;;;;;;;;;10536578;28;20089;-76
2023/10/30 18:28:31;;;;;;;4.18;1.95;;;;;;;;;;10534555;28;20113;-76
2023/10/30 18:33:35;;;;;;;10.13;3.30;;;;;;;;;;10529396;28;20040;-75
2023/10/30 18:38:39;;;;;;;;;;;;;;;;;;10536433;28;20081;-77
2023/10/30 18:43:42;;;;;;;4.15;2.22;;;;;;;;;;10525730;28;19924;-75
2023/10/30 18:48:46;;;;;;;16.85;3.30;;;;;;;;;;10529097;28;20044;-75
2023/10/30 18:53:49;;;;;;;7.30;1.98;;;;;;;;;;10525138;28;20716;-76
2023/10/30 18:58:53;;;;;;;5.38;2.45;;;;;;;;;;10531658;28;20527;-76
2023/10/30 19:03:58;;;;;;;2.58;1.50;;;;;;;;;;10529908;28;20051;-76
2023/10/30 19:09:00;;;;;;;6.50;1.92;;;;;;;;;;10531105;28;20056;-75
2023/10/30 19:14:03;;;;;;;5.90;2.30;;;;;;;;;;10545897;28;20045;-76
2023/10/30 19:19:09;;;;;;;3.17;1.83;;;;;;;;;;10532904;28;20082;-76
2023/10/30 19:24:12;;;;;;;;;;;;;;;;;;10512602;28;20097;-75
2023/10/30 19:29:14;;;;;;;5.68;2.42;;;;;;;;;;10533461;28;19924;-76
2023/10/30 19:34:18;;;;;;;1.35;0.93;;;;;;;;;;10530291;28;20039;-75
2023/10/30 19:39:21;;;;;;;3.40;2.20;;;;;;;;;;10526209;28;20060;-76
2023/10/30 19:44:24;;;;;;;4.03;1.90;;;;;;;;;;10532938;28;20135;-77
2023/10/30 19:49:28;;;;;;;6.68;2.75;;;;;;;;;;10530142;28;20043;-77
2023/10/30 19:54:32;;;;;;;4.35;2.05;;;;;;;;;;10534468;28;20058;-76
2023/10/30 19:59:35;;;;;;;3.42;1.70;;;;;;;;;;10538122;28;20039;-76
2023/10/30 20:04:39;;;;;;;5.25;2.40;;;;;;;;;;10527548;28;20037;-76
2023/10/30 20:09:42;;;;;;;5.88;2.60;;;;;;;;;;10521152;28;20101;-74
2023/10/30 20:14:57;;;;;;;6.13;2.83;;;;;;;;;;10526024;28;20078;-75
2023/10/30 20:20:01;;;;;;;7.03;2.93;;;;;;;;;;10524049;28;20076;-75
2023/10/30 20:25:04;;;;;;;7.65;4.28;;;;;;;;;;10532555;28;20036;-75
2023/10/30 20:30:07;;;;;;;10.33;5.57;;;;;;;;;;10528331;28;20055;-74
2023/10/30 20:35:12;;;;;;;10.25;5.75;;;;;;;;;;10524092;28;20115;-75
2023/10/30 20:40:18;;;;;;;10.65;4.63;;;;;;;;;;10525830;28;20095;-76
2023/10/30 20:45:20;;;;;;;13.23;6.13;;;;;;;;;;10518611;28;20123;-76
2023/10/30 20:50:24;;;;;;;9.48;5.57;;;;;;;;;;10521311;28;20272;-76
2023/10/30 20:55:27;;;;;;;10.05;5.85;;;;;;;;;;10530072;28;20127;-76
2023/10/30 21:00:30;;;;;;;10.82;3.28;;;;;;;;;;10528850;28;20111;-77
2023/10/30 21:05:34;;;;;;;8.13;3.58;;;;;;;;;;10528920;28;20113;-76
2023/10/30 21:10:38;;;;;;;10.43;5.00;;;;;;;;;;10529498;28;20201;-78
2023/10/30 21:15:41;;;;;;;12.82;5.97;;;;;;;;;;10535428;28;20040;-77
2023/10/30 21:20:45;;;;;;;13.70;5.88;;;;;;;;;;10519708;28;20178;-75
2023/10/30 21:25:49;;;;;;;12.45;6.25;;;;;;;;;;10515735;28;20099;-77
2023/10/30 21:30:51;;;;;;;12.50;6.72;;;;;;;;;;10515878;28;20385;-74
2023/10/30 21:35:56;;;;;;;11.30;6.50;;;;;;;;;;10521872;28;20059;-74
2023/10/30 21:40:59;;;;;;;6.00;2.90;;;;;;;;;;10522346;28;20252;-75
2023/10/30 21:46:02;;;;;;;9.80;4.57;;;;;;;;;;10517762;28;20054;-72
2023/10/30 21:51:06;;;;;;;12.55;6.30;;;;;;;;;;10516705;28;20032;-77
2023/10/30 21:56:08;;;;;;;10.63;5.78;;;;;;;;;;10520040;28;20044;-77
2023/10/30 22:01:11;;;;;;;9.23;5.13;;;;;;;;;;10517645;28;20043;-78
2023/10/30 22:06:15;;;;;;;8.02;4.05;;;;;;;;;;10527507;28;20096;-78
2023/10/30 22:11:18;;;;;;;;;;;;;;;;;;10528424;28;20474;-78
2023/10/30 22:16:20;;;;;;;5.10;2.88;;;;;;;;;;10524951;28;19920;-78
2023/10/30 22:21:24;;;;;;;4.80;2.58;;;;;;;;;;10507466;28;20044;-78
2023/10/30 22:26:27;;;;;;;5.78;2.88;;;;;;;;;;10507908;28;20167;-77
2023/10/30 22:31:29;;;;;;;3.95;2.03;;;;;;;;;;10527114;28;20036;-78
2023/10/30 22:36:33;;;;;;;3.83;1.90;;;;;;;;;;10533348;28;20054;-78
2023/10/30 22:41:37;;;;;;;4.93;2.30;;;;;;;;;;10533865;28;20067;-78
2023/10/30 22:46:40;;;;;;;3.15;1.75;;;;;;;;;;10533656;28;20129;-77
2023/10/30 22:51:44;;;;;;;5.70;2.30;;;;;;;;;;10532856;28;20051;-78
2023/10/30 22:56:47;;;;;;;;;;;;;;;;;;10530842;28;20097;-77
2023/10/30 23:01:50;;;;;;;5.05;2.75;;;;;;;;;;10527020;28;20356;-77
2023/10/30 23:06:54;;;;;;;4.65;2.97;;;;;;;;;;10525021;28;20052;-77
2023/10/30 23:11:56;;;;;;;;;;;;;;;;;;10531698;28;20147;-78
2023/10/30 23:17:00;;;;;;;4.45;2.40;;;;;;;;;;10520941;28;19920;-78
2023/10/30 23:22:04;;;;;;;1.98;1.17;;;;;;;;;;10524252;28;20742;-78
2023/10/30 23:27:07;;;;;;;3.38;1.38;;;;;;;;;;10525233;28;20553;-79
2023/10/30 23:32:09;;;;;;;3.58;1.92;;;;;;;;;;10530457;28;20481;-78
2023/10/30 23:37:13;;;;;;;1.85;1.20;;;;;;;;;;10507304;28;20085;-79
2023/10/30 23:42:16;;;;;;;2.50;1.45;;;;;;;;;;10525646;28;20048;-78
2023/10/30 23:47:19;;;;;;;2.38;1.30;;;;;;;;;;10524936;28;20050;-77
2023/10/30 23:52:23;;;;;;;2.05;1.17;;;;;;;;;;10524165;28;20186;-78
2023/10/30 23:57:25;;;;;;;;;;;;;;;;;;10520227;28;20051;-79
